Time;durP1;ratioP1;P1;durP2;ratioP2;P2;SDS_P1;SDS_P2;PMS_P1;PMS_P2;Temp;Humidity;BMP_temperature;BMP_pressure;BME280_temperature;BME280_humidity;BME280_pressure;Samples;Min_cycle;Max_cycle;Signal;HPM_P1;HPM_P2
2021/04/22 00:00:34;;;;;;;7.60;1.90;;;6.00;99.90;;;;;;5064513;28;20029;-75
2021/04/22 00:02:59;;;;;;;11.95;1.45;;;5.90;99.90;;;;;;5064634;28;20032;-75
2021/04/22 00:05:35;;;;;;;1.98;0.98;;;6.00;99.90;;;;;;5064724;28;20033;-75
2021/04/22 00:08:02;;;;;;;7.32;1.40;;;6.00;99.90;;;;;;5063479;28;20048;-73
2021/04/22 00:10:49;;;;;;;12.80;1.45;;;6.00;99.90;;;;;;5063136;28;20028;-73
2021/04/22 00:13:18;;;;;;;5.55;0.85;;;6.20;99.90;;;;;;5062559;28;20564;-75
2021/04/22 00:15:44;;;;;;;4.30;1.23;;;6.10;99.90;;;;;;5062700;28;20037;-75
2021/04/22 00:18:10;;;;;;;4.68;1.17;;;6.10;99.90;;;;;;5064320;28;20028;-75
2021/04/22 00:20:36;;;;;;;4.53;2.20;;;6.20;99.90;;;;;;5064343;28;20037;-75
2021/04/22 00:23:14;;;;;;;5.63;1.27;;;6.20;99.90;;;;;;5063447;28;20198;-77
2021/04/22 00:25:42;;;;;;;19.33;1.80;;;6.20;99.90;;;;;;5062402;28;20037;-75
2021/04/22 00:28:09;;;;;;;16.80;1.90;;;6.20;99.90;;;;;;5063077;28;20029;-74
2021/04/22 00:30:36;;;;;;;3.90;1.63;;;6.20;99.90;;;;;;5063153;28;20035;-74
2021/04/22 00:33:13;;;;;;;13.98;2.42;;;6.20;99.90;;;;;;5064458;28;20025;-74
2021/04/22 00:35:38;;;;;;;7.28;1.35;;;6.10;99.90;;;;;;5064368;28;20091;-74
2021/04/22 00:38:06;;;;;;;18.35;1.38;;;6.10;99.90;;;;;;5064140;28;20025;-74
2021/04/22 00:40:31;;;;;;;18.25;2.25;;;6.10;99.90;;;;;;5062864;28;20032;-76
2021/04/22 00:43:06;;;;;;;10.75;1.83;;;6.10;99.90;;;;;;5064149;28;20026;-75
2021/04/22 00:45:32;;;;;;;7.55;0.80;;;6.10;99.90;;;;;;5063694;28;20037;-75
2021/04/22 00:47:59;;;;;;;2.42;0.93;;;6.20;99.90;;;;;;5064150;28;20055;-74
2021/04/22 00:50:28;;;;;;;11.27;2.20;;;6.30;99.90;;;;;;5062700;28;20065;-74
2021/04/22 00:52:58;;;;;;;12.10;1.92;;;6.20;99.90;;;;;;5064193;28;20462;-76
2021/04/22 00:55:25;;;;;;;11.35;1.55;;;6.20;99.90;;;;;;5062633;28;20025;-75
2021/04/22 00:57:51;;;;;;;11.70;1.75;;;6.20;99.90;;;;;;5062729;28;20435;-77
2021/04/22 01:00:21;;;;;;;2.42;1.05;;;6.20;99.90;;;;;;5064576;28;20362;-75
2021/04/22 01:02:47;;;;;;;6.53;2.30;;;6.20;99.90;;;;;;5064020;28;20025;-74
2021/04/22 01:05:27;;;;;;;5.75;1.33;;;6.30;99.90;;;;;;5062881;28;20041;-77
2021/04/22 01:07:53;;;;;;;5.20;1.45;;;6.30;99.90;;;;;;5062402;28;20477;-75
2021/04/22 01:10:20;;;;;;;11.38;1.63;;;6.30;99.90;;;;;;5062726;28;20026;-76
2021/04/22 01:12:46;;;;;;;10.43;1.55;;;6.30;99.90;;;;;;5064341;28;20057;-73
2021/04/22 01:15:16;;;;;;;11.77;1.75;;;6.30;99.90;;;;;;5064785;28;20032;-75
2021/04/22 01:17:42;;;;;;;8.10;1.55;;;6.30;99.90;;;;;;5062678;28;20017;-74
2021/04/22 01:20:11;;;;;;;5.07;1.77;;;6.20;99.90;;;;;;5063724;28;20104;-75
2021/04/22 01:22:37;;;;;;;19.15;1.70;;;6.20;99.90;;;;;;5063440;28;20091;-76
2021/04/22 01:25:07;;;;;;;9.90;1.52;;;6.20;99.90;;;;;;5063733;28;20025;-76
2021/04/22 01:27:33;;;;;;;14.60;1.85;;;6.20;99.90;;;;;;5067130;28;20039;-75
2021/04/22 01:29:58;;;;;;;8.23;1.63;;;6.30;99.90;;;;;;5066468;28;20038;-77
2021/04/22 01:32:24;;;;;;;6.97;1.20;;;6.20;99.90;;;;;;5066860;28;20025;-77
2021/04/22 01:34:50;;;;;;;6.20;1.63;;;6.30;99.90;;;;;;5066356;28;20029;-76
2021/04/22 01:37:15;;;;;;;4.07;1.25;;;6.30;99.90;;;;;;5067219;28;20032;-75
2021/04/22 01:39:41;;;;;;;9.65;1.08;;;6.10;99.90;;;;;;5067265;28;20041;-74
2021/04/22 01:42:07;;;;;;;4.63;1.60;;;6.10;99.90;;;;;;5066111;28;20021;-74
2021/04/22 01:44:33;;;;;;;8.15;1.52;;;6.10;99.90;;;;;;5067076;28;20029;-78
2021/04/22 01:46:59;;;;;;;5.28;1.42;;;6.00;99.90;;;;;;5065724;28;20065;-76
2021/04/22 01:49:24;;;;;;;7.70;0.88;;;6.00;99.90;;;;;;5068026;28;20033;-76
2021/04/22 01:51:50;;;;;;;3.65;1.17;;;6.00;99.90;;;;;;5066201;28;20056;-77
2021/04/22 01:54:15;;;;;;;5.10;1.40;;;6.00;99.90;;;;;;5066731;28;20035;-79
2021/04/22 01:56:41;;;;;;;9.23;1.20;;;6.10;99.90;;;;;;5065884;28;20033;-75
2021/04/22 01:59:07;;;;;;;2.28;0.57;;;6.10;99.90;;;;;;5065584;28;20029;-73
2021/04/22 02:01:32;;;;;;;6.25;1.52;;;6.10;99.90;;;;;;5066548;28;20037;-75
2021/04/22 02:03:58;;;;;;;5.07;2.53;;;6.10;99.90;;;;;;5067083;28;20025;-75
2021/04/22 02:06:23;;;;;;;9.35;1.48;;;6.10;99.90;;;;;;5065790;28;20041;-77
2021/04/22 02:08:49;;;;;;;6.63;0.88;;;6.00;99.90;;;;;;5067289;28;20111;-73
2021/04/22 02:11:15;;;;;;;3.50;1.60;;;6.00;99.90;;;;;;5066929;28;20049;-75
2021/04/22 02:13:40;;;;;;;6.65;1.27;;;6.00;99.90;;;;;;5065041;28;20025;-75
2021/04/22 02:16:06;;;;;;;6.88;1.90;;;6.10;99.90;;;;;;5066670;28;20381;-74
2021/04/22 02:18:32;;;;;;;8.18;1.45;;;6.10;99.90;;;;;;5066520;28;20029;-74
2021/04/22 02:20:58;;;;;;;2.65;0.93;;;6.10;99.90;;;;;;5064868;28;20041;-76
2021/04/22 02:23:25;;;;;;;10.30;1.58;;;6.10;99.90;;;;;;5065677;28;20051;-76
2021/04/22 02:25:50;;;;;;;10.98;1.08;;;6.20;99.90;;;;;;5065255;28;20037;-74
2021/04/22 02:28:16;;;;;;;13.73;2.05;;;6.20;99.90;;;;;;5066919;28;20029;-75
2021/04/22 02:30:44;;;;;;;12.00;2.05;;;6.10;99.90;;;;;;5065419;28;20032;-75
2021/04/22 02:33:13;;;;;;;4.10;1.67;;;6.20;99.90;;;;;;5066675;28;20036;-74
2021/04/22 02:35:40;;;;;;;4.93;0.90;;;6.20;99.90;;;;;;5066384;28;20033;-74
2021/04/22 02:38:09;;;;;;;4.10;1.77;;;6.30;99.90;;;;;;5065638;28;20033;-74
2021/04/22 02:40:37;;;;;;;9.13;1.48;;;6.20;99.90;;;;;;5066555;28;20024;-75
2021/04/22 02:43:10;;;;;;;6.30;1.45;;;6.20;99.90;;;;;;5064885;28;20021;-75
2021/04/22 02:45:42;;;;;;;2.95;1.40;;;6.20;99.90;;;;;;5065838;28;20056;-76
2021/04/22 02:48:09;;;;;;;3.50;1.40;;;6.10;99.90;;;;;;5065027;28;20033;-77
2021/04/22 02:50:38;;;;;;;15.98;1.55;;;6.10;99.90;;;;;;5064601;28;20013;-74
2021/04/22 02:53:05;;;;;;;6.38;1.63;;;6.10;99.90;;;;;;5066049;28;20021;-72
2021/04/22 02:55:31;;;;;;;8.13;2.33;;;6.20;99.90;;;;;;5066024;28;20021;-75
2021/04/22 02:57:57;;;;;;;6.65;1.52;;;6.10;99.90;;;;;;5065805;28;20084;-74
2021/04/22 03:00:24;;;;;;;5.47;1.23;;;6.20;99.90;;;;;;5065723;28;20112;-76
2021/04/22 03:02:50;;;;;;;5.13;1.60;;;6.20;99.90;;;;;;5066199;28;20029;-74
2021/04/22 03:05:18;;;;;;;9.00;1.58;;;6.10;99.90;;;;;;5065832;28;20041;-76
2021/04/22 03:07:45;;;;;;;13.23;1.52;;;6.10;99.90;;;;;;5066002;28;20112;-75
2021/04/22 03:10:14;;;;;;;3.30;0.98;;;6.20;99.90;;;;;;5064193;28;20048;-75
2021/04/22 03:12:39;;;;;;;9.98;1.52;;;6.10;99.90;;;;;;5065462;28;20819;-75
2021/04/22 03:15:07;;;;;;;11.05;2.03;;;6.10;99.90;;;;;;5065524;28;20033;-74
2021/04/22 03:17:34;;;;;;;10.15;1.92;;;6.10;99.90;;;;;;5064430;28;20470;-75
2021/04/22 03:19:59;;;;;;;9.35;1.38;;;6.10;99.90;;;;;;5065271;28;20028;-75
2021/04/22 03:22:25;;;;;;;2.70;0.95;;;6.10;99.90;;;;;;5065422;28;20060;-75
2021/04/22 03:24:51;;;;;;;3.33;1.08;;;6.10;99.90;;;;;;5065321;28;20025;-76
2021/04/22 03:27:21;;;;;;;7.45;2.20;;;6.10;99.90;;;;;;5062712;28;20040;-76
2021/04/22 03:29:46;;;;;;;7.82;1.35;;;6.10;99.90;;;;;;5043590;28;20055;-74
2021/04/22 03:32:12;;;;;;;8.23;1.17;;;6.10;99.90;;;;;;5045014;28;20081;-76
2021/04/22 03:34:37;;;;;;;5.53;1.05;;;6.10;99.90;;;;;;5044752;28;20031;-76
2021/04/22 03:37:03;;;;;;;6.93;1.45;;;6.10;99.90;;;;;;5044898;28;20029;-75
2021/04/22 03:39:29;;;;;;;2.30;0.77;;;6.10;99.90;;;;;;5044997;28;20029;-74
2021/04/22 03:41:54;;;;;;;15.15;2.30;;;6.10;99.90;;;;;;5043840;28;20139;-73
2021/04/22 03:44:26;;;;;;;9.32;1.25;;;6.00;99.90;;;;;;5045232;28;20501;-75
2021/04/22 03:46:51;;;;;;;3.08;0.88;;;6.00;99.90;;;;;;5043721;28;20116;-74
2021/04/22 03:49:23;;;;;;;10.02;1.75;;;6.00;99.90;;;;;;5044368;28;20387;-75
2021/04/22 03:51:48;;;;;;;8.90;1.27;;;5.90;99.90;;;;;;5044930;28;20037;-76
2021/04/22 03:54:14;;;;;;;6.93;1.60;;;6.00;99.90;;;;;;5043272;28;20499;-76
2021/04/22 03:56:40;;;;;;;4.32;0.65;;;5.90;99.90;;;;;;5043213;28;20991;-73
2021/04/22 03:59:05;;;;;;;5.80;1.08;;;5.90;99.90;;;;;;5045156;28;20097;-74
2021/04/22 04:01:31;;;;;;;2.80;0.82;;;5.90;99.90;;;;;;5045090;28;20100;-73
2021/04/22 04:03:57;;;;;;;7.78;1.45;;;5.90;99.90;;;;;;5044814;28;20029;-73
2021/04/22 04:06:22;;;;;;;3.95;1.08;;;5.90;99.90;;;;;;5044600;28;20041;-73
2021/04/22 04:08:48;;;;;;;4.47;1.33;;;5.90;99.90;;;;;;5043931;28;20021;-73
2021/04/22 04:11:14;;;;;;;10.73;1.40;;;5.90;99.90;;;;;;5044560;28;20035;-75
2021/04/22 04:13:39;;;;;;;7.57;1.33;;;5.80;99.90;;;;;;5043414;28;20017;-75
2021/04/22 04:16:05;;;;;;;4.47;0.95;;;5.70;99.90;;;;;;5043447;28;20072;-75
2021/04/22 04:18:31;;;;;;;6.18;1.60;;;5.70;99.90;;;;;;5044697;28;20021;-73
2021/04/22 04:20:56;;;;;;;5.53;0.75;;;5.70;99.90;;;;;;5044348;28;20046;-74
2021/04/22 04:23:22;;;;;;;3.00;0.98;;;5.60;99.90;;;;;;5043110;28;20025;-73
2021/04/22 04:25:47;;;;;;;6.47;1.17;;;5.60;99.90;;;;;;5042776;28;20041;-73
2021/04/22 04:28:13;;;;;;;16.80;1.88;;;5.60;99.90;;;;;;5044669;28;20025;-71
2021/04/22 04:30:38;;;;;;;10.13;2.08;;;5.60;99.90;;;;;;5043329;28;20029;-74
2021/04/22 04:33:04;;;;;;;14.18;1.63;;;5.70;99.90;;;;;;5043046;28;20021;-76
2021/04/22 04:35:30;;;;;;;11.60;1.55;;;5.70;99.90;;;;;;5043049;28;20022;-75
2021/04/22 04:37:56;;;;;;;3.30;0.65;;;5.70;99.90;;;;;;5042823;28;20474;-74
2021/04/22 04:40:21;;;;;;;5.50;1.35;;;5.80;99.90;;;;;;5044419;28;20100;-76
2021/04/22 04:42:47;;;;;;;4.95;2.15;;;5.80;99.90;;;;;;5044478;28;20025;-75
2021/04/22 04:45:16;;;;;;;7.40;1.45;;;5.90;99.90;;;;;;5044314;28;20528;-76
2021/04/22 04:47:42;;;;;;;10.32;1.17;;;5.90;99.90;;;;;;5043992;28;20029;-75
2021/04/22 04:50:09;;;;;;;2.45;0.80;;;5.90;99.90;;;;;;5042665;28;20156;-75
2021/04/22 04:52:34;;;;;;;3.53;1.23;;;5.90;99.90;;;;;;5042526;28;20053;-74
2021/04/22 04:55:00;;;;;;;1.80;0.95;;;6.00;99.90;;;;;;5042825;28;20028;-74
2021/04/22 04:57:26;;;;;;;11.23;1.10;;;6.00;99.90;;;;;;5044115;28;20072;-76
2021/04/22 04:59:52;;;;;;;6.65;0.90;;;6.00;99.90;;;;;;5043137;28;20063;-74
2021/04/22 05:02:18;;;;;;;3.72;1.30;;;6.10;99.90;;;;;;5047471;28;20397;-73
2021/04/22 05:04:43;;;;;;;2.63;1.23;;;6.20;99.90;;;;;;5047937;28;20033;-74
2021/04/22 05:07:09;;;;;;;0.80;0.57;;;6.30;99.90;;;;;;5047743;28;20041;-74
2021/04/22 05:09:35;;;;;;;13.00;1.40;;;6.20;99.90;;;;;;5047776;28;20071;-74
2021/04/22 05:12:01;;;;;;;6.82;1.15;;;6.20;99.90;;;;;;5045977;28;20034;-72
2021/04/22 05:14:27;;;;;;;7.78;2.05;;;6.30;99.90;;;;;;5047844;28;20025;-72
2021/04/22 05:16:52;;;;;;;4.20;1.40;;;6.20;99.90;;;;;;5047907;28;20029;-73
2021/04/22 05:19:18;;;;;;;1.60;0.60;;;6.30;99.90;;;;;;5048008;28;20116;-75
2021/04/22 05:21:44;;;;;;;8.63;1.90;;;6.30;99.90;;;;;;5045458;28;20143;-75
2021/04/22 05:24:10;;;;;;;11.95;1.20;;;6.40;99.90;;;;;;5047549;28;20048;-76
2021/04/22 05:26:35;;;;;;;2.88;0.85;;;6.30;99.90;;;;;;5047358;28;21195;-73
2021/04/22 05:29:01;;;;;;;2.47;1.23;;;6.40;99.90;;;;;;5052873;28;20072;-75
2021/04/22 05:31:27;;;;;;;5.97;1.05;;;6.40;99.90;;;;;;5063797;28;20025;-75
2021/04/22 05:33:52;;;;;;;10.40;3.00;;;6.50;99.90;;;;;;5048485;28;20041;-77
2021/04/22 05:36:18;;;;;;;9.57;1.08;;;6.40;99.90;;;;;;5046847;28;20089;-74
2021/04/22 05:38:44;;;;;;;8.35;1.42;;;6.40;99.90;;;;;;5046319;28;20096;-79
2021/04/22 05:41:09;;;;;;;6.50;1.80;;;6.50;99.90;;;;;;5044431;28;20035;-74
2021/04/22 05:43:35;;;;;;;7.75;1.35;;;6.40;99.90;;;;;;5046277;28;20032;-74
2021/04/22 05:46:02;;;;;;;2.35;0.90;;;6.50;99.90;;;;;;5045684;28;20393;-76
2021/04/22 05:48:28;;;;;;;10.48;1.60;;;6.60;99.90;;;;;;5047517;28;20026;-75
2021/04/22 05:50:55;;;;;;;6.28;2.08;;;6.60;99.90;;;;;;5046016;28;20032;-73
2021/04/22 05:53:21;;;;;;;2.45;1.00;;;6.70;99.90;;;;;;5047683;28;20091;-74
2021/04/22 05:55:47;;;;;;;2.42;1.00;;;6.80;99.90;;;;;;5047823;28;20030;-74
2021/04/22 05:58:13;;;;;;;8.13;1.80;;;6.80;99.90;;;;;;5048083;28;20109;-74
2021/04/22 06:00:39;;;;;;;5.60;1.17;;;6.70;99.90;;;;;;5047829;28;20032;-73
2021/04/22 06:03:05;;;;;;;5.78;1.10;;;6.80;99.90;;;;;;5047742;28;20022;-74
2021/04/22 06:05:31;;;;;;;9.32;2.05;;;6.90;99.90;;;;;;5046057;28;20041;-74
2021/04/22 06:07:57;;;;;;;9.63;1.33;;;6.90;99.90;;;;;;5047445;28;20029;-75
2021/04/22 06:10:22;;;;;;;9.07;1.33;;;6.90;99.90;;;;;;5048171;28;20025;-76
2021/04/22 06:12:49;;;;;;;4.45;1.13;;;7.00;99.90;;;;;;5046544;28;20518;-75
2021/04/22 06:15:16;;;;;;;4.00;1.40;;;7.10;99.90;;;;;;5047223;28;20037;-77
2021/04/22 06:17:42;;;;;;;7.03;1.38;;;7.10;99.90;;;;;;5045838;28;20035;-75
2021/04/22 06:20:10;;;;;;;4.40;0.90;;;7.20;99.90;;;;;;5046517;28;20025;-76
2021/04/22 06:22:36;;;;;;;6.97;1.92;;;7.20;99.90;;;;;;5046805;28;20255;-76
2021/04/22 06:25:02;;;;;;;9.10;1.65;;;7.30;99.90;;;;;;5045815;28;20056;-76
2021/04/22 06:27:27;;;;;;;6.78;0.85;;;7.20;99.90;;;;;;5047074;28;20025;-78
2021/04/22 06:29:53;;;;;;;9.50;1.77;;;7.30;99.90;;;;;;5047104;28;20030;-75
2021/04/22 06:32:19;;;;;;;2.45;0.88;;;7.30;99.90;;;;;;5046912;28;20041;-75
2021/04/22 06:34:46;;;;;;;9.77;2.22;;;7.30;99.90;;;;;;5046115;28;20028;-75
2021/04/22 06:37:11;;;;;;;4.57;1.00;;;7.30;99.90;;;;;;5045155;28;20068;-77
2021/04/22 06:39:37;;;;;;;3.35;1.67;;;7.30;99.90;;;;;;5046655;28;20104;-76
2021/04/22 06:42:03;;;;;;;8.65;1.70;;;7.40;99.90;;;;;;5045611;28;20022;-76
2021/04/22 06:44:28;;;;;;;14.55;1.70;;;7.60;99.90;;;;;;5046395;28;20026;-73
2021/04/22 06:46:54;;;;;;;3.47;1.40;;;7.50;99.90;;;;;;5046539;28;20124;-77
2021/04/22 06:49:19;;;;;;;2.72;1.02;;;7.50;99.90;;;;;;5046171;28;20039;-74
2021/04/22 06:51:45;;;;;;;5.05;1.77;;;7.70;99.90;;;;;;5044454;28;20035;-76
2021/04/22 06:54:11;;;;;;;2.75;1.05;;;7.70;99.90;;;;;;5046353;28;20033;-75
2021/04/22 06:56:37;;;;;;;20.13;1.60;;;7.70;99.90;;;;;;5044779;28;20021;-76
2021/04/22 06:59:04;;;;;;;10.48;1.13;;;7.70;99.90;;;;;;5042884;28;20089;-75
2021/04/22 07:01:30;;;;;;;5.40;1.20;;;7.70;99.90;;;;;;5046187;28;20021;-74
2021/04/22 07:03:56;;;;;;;6.40;1.63;;;7.80;99.90;;;;;;5044234;28;20029;-75
2021/04/22 07:06:22;;;;;;;12.93;1.25;;;7.80;99.90;;;;;;5044536;28;20422;-75
2021/04/22 07:08:48;;;;;;;0.85;0.52;;;7.80;99.90;;;;;;5046061;28;20052;-73
2021/04/22 07:11:14;;;;;;;11.18;1.02;;;7.90;99.90;;;;;;5045634;28;20025;-76
2021/04/22 07:13:40;;;;;;;6.82;0.95;;;7.90;99.90;;;;;;5044815;28;20033;-77
2021/04/22 07:16:06;;;;;;;6.80;1.52;;;7.90;99.90;;;;;;5045358;28;20030;-75
2021/04/22 07:18:32;;;;;;;2.70;1.48;;;7.90;99.90;;;;;;5044547;28;20055;-74
2021/04/22 07:20:58;;;;;;;2.30;0.85;;;7.90;99.90;;;;;;5044138;28;20056;-76
2021/04/22 07:23:23;;;;;;;4.20;1.25;;;8.00;99.90;;;;;;5047315;28;20017;-70
2021/04/22 07:25:50;;;;;;;16.75;1.80;;;8.10;99.90;;;;;;5047164;28;20048;-76
2021/04/22 07:28:17;;;;;;;10.73;2.38;;;8.00;99.90;;;;;;5045636;28;20116;-74
2021/04/22 07:30:42;;;;;;;1.85;0.85;;;8.00;99.90;;;;;;5045828;28;20056;-77
2021/04/22 07:33:11;;;;;;;7.07;1.30;;;8.00;99.90;;;;;;5044932;28;20046;-77
2021/04/22 07:35:38;;;;;;;15.82;1.77;;;8.00;99.90;;;;;;5057176;28;20033;-73
2021/04/22 07:38:10;;;;;;;5.03;1.65;;;8.00;99.90;;;;;;5065354;28;20025;-76
2021/04/22 07:40:36;;;;;;;2.22;0.90;;;8.00;99.90;;;;;;5063171;28;20025;-76
2021/04/22 07:43:02;;;;;;;6.28;1.33;;;8.10;99.90;;;;;;5056512;28;20013;-79
2021/04/22 07:45:33;;;;;;;1.95;1.27;;;8.10;99.90;;;;;;5064416;28;20041;-77
2021/04/22 07:48:01;;;;;;;11.55;1.80;;;8.30;99.90;;;;;;5053998;28;20071;-77
2021/04/22 07:50:27;;;;;;;7.47;1.67;;;8.20;99.90;;;;;;5052648;28;20033;-79
2021/04/22 07:52:53;;;;;;;11.00;1.08;;;8.20;99.90;;;;;;5055783;28;20033;-76
2021/04/22 07:55:27;;;;;;;5.55;1.40;;;8.30;99.90;;;;;;5044236;28;20561;-73
2021/04/22 07:57:53;;;;;;;3.60;1.25;;;8.40;99.90;;;;;;5044324;28;20053;-75
2021/04/22 08:00:19;;;;;;;3.60;1.40;;;8.50;99.90;;;;;;5043936;28;20280;-74
2021/04/22 08:02:46;;;;;;;3.70;1.08;;;8.60;99.90;;;;;;5043526;28;20029;-76
2021/04/22 08:05:13;;;;;;;8.70;1.45;;;8.60;99.90;;;;;;5045863;28;20036;-76
2021/04/22 08:07:39;;;;;;;5.45;1.58;;;8.50;99.90;;;;;;5064636;28;20025;-76
2021/04/22 08:10:15;;;;;;;4.35;1.17;;;8.50;99.90;;;;;;5065333;28;20031;-74
2021/04/22 08:12:41;;;;;;;13.65;1.73;;;8.50;99.90;;;;;;5063791;28;20489;-77
2021/04/22 08:15:09;;;;;;;7.32;1.48;;;8.70;99.90;;;;;;5063120;28;20047;-76
2021/04/22 08:17:37;;;;;;;8.57;0.98;;;9.00;99.90;;;;;;5051524;28;20089;-77
2021/04/22 08:20:06;;;;;;;9.02;2.40;;;9.10;99.90;;;;;;5051653;28;20021;-77
2021/04/22 08:22:33;;;;;;;6.75;1.30;;;9.10;99.90;;;;;;5051831;28;20056;-76
2021/04/22 08:24:59;;;;;;;7.97;1.70;;;9.10;99.90;;;;;;5056317;28;20127;-76
2021/04/22 08:27:25;;;;;;;8.23;1.75;;;9.10;99.90;;;;;;5056153;28;20043;-77
2021/04/22 08:29:53;;;;;;;6.07;1.33;;;9.20;99.90;;;;;;5043563;28;20060;-77
2021/04/22 08:32:18;;;;;;;7.43;1.02;;;8.90;99.90;;;;;;5043769;28;20035;-76
2021/04/22 08:34:44;;;;;;;14.07;2.05;;;8.90;99.90;;;;;;5044217;28;20025;-77
2021/04/22 08:37:10;;;;;;;13.23;2.03;;;8.80;99.90;;;;;;5044005;28;20037;-77
2021/04/22 08:39:35;;;;;;;11.77;2.25;;;8.80;99.90;;;;;;5044607;28;20036;-77
2021/04/22 08:42:03;;;;;;;5.18;1.23;;;8.80;99.90;;;;;;5043827;28;20032;-78
2021/04/22 08:44:28;;;;;;;10.48;2.00;;;8.90;99.90;;;;;;5049870;28;20466;-77
2021/04/22 08:46:55;;;;;;;5.20;1.08;;;8.80;99.90;;;;;;5043182;28;20056;-76
2021/04/22 08:49:22;;;;;;;3.30;1.55;;;8.90;99.90;;;;;;5042077;28;20052;-81
2021/04/22 08:51:48;;;;;;;7.30;1.80;;;9.10;99.90;;;;;;5062164;28;20029;-78
2021/04/22 08:54:15;;;;;;;7.15;1.77;;;9.20;99.90;;;;;;5064782;28;20028;-75
2021/04/22 08:56:42;;;;;;;9.73;1.58;;;9.40;99.90;;;;;;5063779;28;20572;-77
2021/04/22 08:59:08;;;;;;;6.75;1.20;;;9.50;99.90;;;;;;5064323;28;20159;-77
2021/04/22 09:01:33;;;;;;;12.73;2.00;;;9.40;99.90;;;;;;5064443;28;20487;-74
2021/04/22 09:04:05;;;;;;;4.78;1.50;;;9.70;99.90;;;;;;5064774;28;20025;-75
2021/04/22 09:06:34;;;;;;;10.15;1.38;;;10.10;99.90;;;;;;5061682;28;20097;-75
2021/04/22 09:09:02;;;;;;;4.25;1.15;;;10.50;99.90;;;;;;5047351;28;20033;-78
2021/04/22 09:11:28;;;;;;;3.83;1.52;;;10.50;99.90;;;;;;5063393;28;20039;-77
2021/04/22 09:13:55;;;;;;;8.75;1.55;;;10.40;99.90;;;;;;5051450;28;20113;-76
2021/04/22 09:16:29;;;;;;;3.90;1.33;;;10.20;99.90;;;;;;5042791;28;20036;-79
2021/04/22 09:19:07;;;;;;;10.18;2.03;;;10.40;99.90;;;;;;5042501;28;20389;-80
2021/04/22 09:21:36;;;;;;;5.32;1.40;;;10.40;99.90;;;;;;5043681;28;20391;-80
2021/04/22 09:24:11;;;;;;;5.78;1.25;;;10.40;99.90;;;;;;5043193;28;20204;-77
2021/04/22 09:26:54;;;;;;;6.10;1.42;;;10.70;99.90;;;;;;5047454;28;20405;-75
2021/04/22 09:29:32;;;;;;;5.95;1.55;;;10.90;99.90;;;;;;5050922;28;20097;-74
2021/04/22 09:32:26;;;;;;;2.03;0.80;;;10.80;99.90;;;;;;5051666;28;20029;-77
2021/04/22 09:35:05;;;;;;;7.18;1.85;;;10.50;99.90;;;;;;5049886;28;20041;-77
2021/04/22 09:37:49;;;;;;;6.82;1.98;;;10.50;99.90;;;;;;5062396;28;20087;-75
2021/04/22 09:40:35;;;;;;;9.82;1.13;;;10.70;99.90;;;;;;5062837;28;20059;-76
2021/04/22 09:43:04;;;;;;;3.35;1.10;;;10.50;99.90;;;;;;5063985;28;20025;-74
2021/04/22 09:45:32;;;;;;;5.32;1.30;;;10.50;99.90;;;;;;5063673;28;20040;-76
2021/04/22 09:47:58;;;;;;;5.63;1.10;;;10.80;99.90;;;;;;5066080;28;20050;-76
2021/04/22 09:50:29;;;;;;;11.13;1.85;;;10.80;99.90;;;;;;5067490;28;20527;-77
2021/04/22 09:52:58;;;;;;;5.80;1.17;;;10.70;99.90;;;;;;5065859;28;20093;-76
2021/04/22 09:55:29;;;;;;;6.25;1.55;;;10.70;99.90;;;;;;5067823;28;20123;-76
2021/04/22 09:57:55;;;;;;;1.05;0.93;;;10.70;99.90;;;;;;5066365;28;20029;-80
2021/04/22 10:00:29;;;;;;;4.22;1.35;;;11.00;99.90;;;;;;5065735;28;20029;-76
2021/04/22 10:02:56;;;;;;;;;;;11.20;99.90;;;;;;5067791;28;20033;-75
2021/04/22 10:05:24;;;;;;;6.78;1.55;;;11.10;99.90;;;;;;5067467;28;19991;-74
2021/04/22 10:07:50;;;;;;;6.80;1.50;;;11.00;99.90;;;;;;5067249;28;20062;-76
2021/04/22 10:10:21;;;;;;;2.38;1.23;;;11.10;99.90;;;;;;5066933;28;20127;-77
2021/04/22 10:12:47;;;;;;;4.18;1.63;;;11.40;99.90;;;;;;5065623;28;20033;-74
2021/04/22 10:15:17;;;;;;;3.95;1.45;;;11.60;99.90;;;;;;5067528;28;20544;-72
2021/04/22 10:17:52;;;;;;;3.70;1.52;;;11.50;99.90;;;;;;5065872;28;20036;-73
2021/04/22 10:20:19;;;;;;;9.93;1.75;;;11.40;99.90;;;;;;5067565;28;20048;-76
2021/04/22 10:22:47;;;;;;;3.38;1.67;;;11.20;99.90;;;;;;5065659;28;20040;-74
2021/04/22 10:25:17;;;;;;;6.45;2.25;;;10.90;99.90;;;;;;5066864;28;20035;-75
2021/04/22 10:27:43;;;;;;;8.07;2.20;;;10.70;99.90;;;;;;5063923;28;20052;-76
2021/04/22 10:30:19;;;;;;;4.15;1.60;;;10.70;99.90;;;;;;5063508;28;20032;-74
2021/04/22 10:32:45;;;;;;;4.57;2.03;;;10.50;99.90;;;;;;5066315;28;20025;-75
2021/04/22 10:35:14;;;;;;;7.53;1.80;;;10.40;99.90;;;;;;5063946;28;20033;-73
2021/04/22 10:37:41;;;;;;;8.43;1.52;;;10.20;99.90;;;;;;5053059;28;20115;-74
2021/04/22 10:40:10;;;;;;;6.57;2.00;;;10.40;99.90;;;;;;5047734;28;20088;-74
2021/04/22 10:42:37;;;;;;;6.93;1.67;;;10.60;99.90;;;;;;5045130;28;20085;-73
2021/04/22 10:45:05;;;;;;;5.57;1.55;;;10.60;99.90;;;;;;5046342;28;20466;-73
2021/04/22 10:47:31;;;;;;;6.70;1.83;;;10.50;99.90;;;;;;5046322;28;20045;-75
2021/04/22 10:49:57;;;;;;;5.32;2.00;;;10.40;99.90;;;;;;5044914;28;20030;-75
2021/04/22 10:52:23;;;;;;;5.80;1.48;;;10.40;99.90;;;;;;5045794;28;20029;-76
2021/04/22 10:54:50;;;;;;;11.13;2.35;;;10.50;99.90;;;;;;5046077;28;20071;-72
2021/04/22 10:57:23;;;;;;;10.98;2.30;;;10.50;99.90;;;;;;5046236;28;20153;-73
2021/04/22 11:00:03;;;;;;;11.15;1.95;;;10.70;99.90;;;;;;5045765;28;20033;-73
2021/04/22 11:02:39;;;;;;;4.57;1.27;;;11.00;99.90;;;;;;5046085;28;20072;-72
2021/04/22 11:05:16;;;;;;;4.68;1.95;;;11.10;99.90;;;;;;5045973;28;20083;-73
2021/04/22 11:07:52;;;;;;;7.13;2.03;;;11.00;99.90;;;;;;5045971;28;20068;-74
2021/04/22 11:10:18;;;;;;;2.83;1.63;;;10.90;99.90;;;;;;5046152;28;20041;-73
2021/04/22 11:12:43;;;;;;;4.10;1.42;;;10.70;99.90;;;;;;5045696;28;20029;-73
2021/04/22 11:15:17;;;;;;;13.73;2.60;;;10.50;99.90;;;;;;5044338;28;20049;-76
2021/04/22 11:17:43;;;;;;;;;;;10.40;99.90;;;;;;5049916;28;20033;-71
2021/04/22 11:20:19;;;;;;;5.15;1.70;;;10.50;99.90;;;;;;5060251;28;19909;-73
2021/04/22 11:22:46;;;;;;;2.70;1.30;;;10.70;99.90;;;;;;5043283;28;20105;-76
2021/04/22 11:25:22;;;;;;;3.83;2.10;;;10.60;99.90;;;;;;5045256;28;20463;-74
2021/04/22 11:27:53;;;;;;;8.98;1.50;;;10.60;99.90;;;;;;5045868;28;20606;-75
2021/04/22 11:30:29;;;;;;;6.15;1.98;;;10.80;99.90;;;;;;5045696;28;20033;-77
2021/04/22 11:32:56;;;;;;;4.63;1.60;;;10.80;99.90;;;;;;5044254;28;20095;-76
2021/04/22 11:35:24;;;;;;;2.88;1.52;;;10.80;99.90;;;;;;5043758;28;20030;-76
2021/04/22 11:37:53;;;;;;;5.55;1.20;;;11.10;99.90;;;;;;5045784;28;20024;-77
2021/04/22 11:40:19;;;;;;;9.70;1.67;;;11.30;99.90;;;;;;5045870;28;20034;-76
2021/04/22 11:42:48;;;;;;;2.90;1.20;;;11.70;99.90;;;;;;5044039;28;20067;-77
2021/04/22 11:45:17;;;;;;;11.40;2.03;;;11.60;99.90;;;;;;5045364;28;20025;-76
2021/04/22 11:47:55;;;;;;;1.95;1.15;;;11.70;99.90;;;;;;5042558;28;20221;-78
2021/04/22 11:50:24;;;;;;;15.98;1.58;;;11.70;99.90;;;;;;5043756;28;20401;-77
2021/04/22 11:53:01;;;;;;;4.20;1.85;;;11.70;99.90;;;;;;5044041;28;20033;-76
2021/04/22 11:55:30;;;;;;;5.93;1.80;;;12.00;99.90;;;;;;5044050;28;20036;-79
2021/04/22 11:57:56;;;;;;;4.10;1.30;;;12.00;99.90;;;;;;5044324;28;20021;-77
2021/04/22 12:00:26;;;;;;;5.93;1.17;;;11.90;99.90;;;;;;5045480;28;20025;-75
2021/04/22 12:02:52;;;;;;;1.90;1.05;;;11.70;99.90;;;;;;5045285;28;20085;-77
2021/04/22 12:05:19;;;;;;;1.75;1.15;;;11.60;99.90;;;;;;5045177;28;20034;-75
2021/04/22 12:07:56;;;;;;;11.57;1.90;;;11.60;99.90;;;;;;5044103;28;20056;-78
2021/04/22 12:10:22;;;;;;;7.55;2.03;;;11.30;99.90;;;;;;5044028;28;20026;-75
2021/04/22 12:12:48;;;;;;;6.13;1.55;;;11.10;99.90;;;;;;5045257;28;20029;-77
2021/04/22 12:15:17;;;;;;;2.88;1.48;;;11.00;99.90;;;;;;5045007;28;20033;-75
2021/04/22 12:17:42;;;;;;;5.40;2.47;;;10.80;99.90;;;;;;5044678;28;20056;-78
2021/04/22 12:20:11;;;;;;;3.53;1.60;;;10.60;99.90;;;;;;5044755;28;20025;-78
2021/04/22 12:22:43;;;;;;;5.55;1.60;;;10.50;99.90;;;;;;5062470;28;20057;-75
2021/04/22 12:25:12;;;;;;;10.85;1.48;;;10.70;99.90;;;;;;5063416;28;20048;-78
2021/04/22 12:27:50;;;;;;;3.22;1.38;;;10.90;99.90;;;;;;5064373;28;20098;-74
2021/04/22 12:30:33;;;;;;;4.97;1.40;;;11.40;99.90;;;;;;5065110;28;20040;-78
2021/04/22 12:33:09;;;;;;;3.22;1.35;;;12.00;99.90;;;;;;5063815;28;20036;-75
2021/04/22 12:35:37;;;;;;;4.38;1.60;;;12.30;99.90;;;;;;5063812;28;20043;-78
2021/04/22 12:38:14;;;;;;;4.47;1.67;;;12.00;99.90;;;;;;5064391;28;20079;-80
2021/04/22 12:40:40;;;;;;;4.18;1.58;;;11.80;99.90;;;;;;5063239;28;20024;-79
2021/04/22 12:43:06;;;;;;;2.83;1.17;;;11.60;99.90;;;;;;5062981;28;20112;-76
2021/04/22 12:45:37;;;;;;;4.93;1.73;;;11.60;99.90;;;;;;5062579;28;20493;-76
2021/04/22 12:48:04;;;;;;;6.38;1.38;;;11.60;99.90;;;;;;5062731;28;20025;-79
2021/04/22 12:50:45;;;;;;;3.85;1.08;;;11.70;99.90;;;;;;5062736;28;20013;-79
2021/04/22 12:53:18;;;;;;;6.25;1.65;;;12.20;99.90;;;;;;5064078;28;20546;-79
2021/04/22 12:55:58;;;;;;;1.80;1.27;;;12.40;99.90;;;;;;5064359;28;20051;-76